Archival Weather

Heathrow

London, United Kingdom (EGLL)

Report from: Wednesday, December 6, 2023 1:50 AM GMT
Current time: Saturday, March 2, 2024 9:34 AM GMT

Current weather – Weather history – Daily summaries
Weather forecast

Temperature5.0°C (41.0°F)
Wind chill3.9°C (39.0°F)
Dew point3.0°C (37.4°F)
Winds 3 kts (1.5 m/s, 3.5 mph) Vrb
Winds variableWinds variable from West-Northwest (290°) to North-Northeast (30°)
Visibility6.2 mi. (10 km)
Clouds Ceiling: Broken clouds 1,300 ft. (396 m)
Scattered clouds 1,300 ft. (396 m)
Altimeter30.03 in.Hg (1017 mB)
Relative humidity87 %
Density altitude-1,224 ft. (-373 m)
Remarks Fully automated report
Flight conditions Marginal Visual Meteorological Conditions
Raw dataEGLL 060150Z AUTO 33003KT 290V030 9999 BKN013 05/03 Q1017 TEMPO SCT013
An error has occurred. This application may no longer respond until reloaded. Reload 🗙